sensor_id;sensor_type;location;lat;lon;timestamp;P1;durP1;ratioP1;P2;durP2;ratioP2
38089;SDS011;23904;52.322;10.232;2023-11-19T00:00:36;1.48;;;0.98;;
38089;SDS011;23904;52.322;10.232;2023-11-19T00:03:01;2.53;;;1.25;;
38089;SDS011;23904;52.322;10.232;2023-11-19T00:05:28;1.42;;;0.75;;
38089;SDS011;23904;52.322;10.232;2023-11-19T00:07:53;2.13;;;1.35;;
38089;SDS011;23904;52.322;10.232;2023-11-19T00:10:19;1.73;;;0.80;;
38089;SDS011;23904;52.322;10.232;2023-11-19T00:12:47;2.33;;;0.88;;
38089;SDS011;23904;52.322;10.232;2023-11-19T00:15:14;1.20;;;0.88;;
38089;SDS011;23904;52.322;10.232;2023-11-19T00:17:46;2.90;;;1.02;;
38089;SDS011;23904;52.322;10.232;2023-11-19T00:20:13;1.55;;;1.02;;
38089;SDS011;23904;52.322;10.232;2023-11-19T00:22:41;3.45;;;1.15;;
38089;SDS011;23904;52.322;10.232;2023-11-19T00:25:07;1.63;;;0.95;;
38089;SDS011;23904;52.322;10.232;2023-11-19T00:27:36;2.00;;;1.23;;
38089;SDS011;23904;52.322;10.232;2023-11-19T00:30:05;3.80;;;1.40;;
38089;SDS011;23904;52.322;10.232;2023-11-19T00:32:32;1.33;;;0.80;;
38089;SDS011;23904;52.322;10.232;2023-11-19T00:34:58;1.27;;;0.60;;
38089;SDS011;23904;52.322;10.232;2023-11-19T00:37:23;1.52;;;0.80;;
38089;SDS011;23904;52.322;10.232;2023-11-19T00:39:49;0.90;;;0.57;;
38089;SDS011;23904;52.322;10.232;2023-11-19T00:42:15;1.63;;;0.85;;
38089;SDS011;23904;52.322;10.232;2023-11-19T00:44:41;1.05;;;0.70;;
38089;SDS011;23904;52.322;10.232;2023-11-19T00:47:07;1.77;;;0.73;;
38089;SDS011;23904;52.322;10.232;2023-11-19T00:49:33;1.20;;;0.73;;
38089;SDS011;23904;52.322;10.232;2023-11-19T00:51:58;1.25;;;0.75;;
38089;SDS011;23904;52.322;10.232;2023-11-19T00:54:24;0.73;;;0.73;;
38089;SDS011;23904;52.322;10.232;2023-11-19T00:56:51;1.05;;;0.80;;
38089;SDS011;23904;52.322;10.232;2023-11-19T00:59:20;1.27;;;0.75;;
38089;SDS011;23904;52.322;10.232;2023-11-19T01:01:46;1.27;;;0.88;;
38089;SDS011;23904;52.322;10.232;2023-11-19T01:04:13;1.30;;;0.80;;
38089;SDS011;23904;52.322;10.232;2023-11-19T01:06:40;2.03;;;1.17;;
38089;SDS011;23904;52.322;10.232;2023-11-19T01:09:07;2.20;;;1.10;;
38089;SDS011;23904;52.322;10.232;2023-11-19T01:11:34;1.58;;;0.90;;
38089;SDS011;23904;52.322;10.232;2023-11-19T01:14:00;3.03;;;1.30;;
38089;SDS011;23904;52.322;10.232;2023-11-19T01:16:26;3.80;;;1.40;;
38089;SDS011;23904;52.322;10.232;2023-11-19T01:18:52;1.95;;;0.80;;
38089;SDS011;23904;52.322;10.232;2023-11-19T01:21:17;2.50;;;1.15;;
38089;SDS011;23904;52.322;10.232;2023-11-19T01:23:43;1.67;;;0.98;;
38089;SDS011;23904;52.322;10.232;2023-11-19T01:26:09;2.67;;;1.00;;
38089;SDS011;23904;52.322;10.232;2023-11-19T01:28:36;1.63;;;1.10;;
38089;SDS011;23904;52.322;10.232;2023-11-19T01:31:04;2.80;;;1.33;;
38089;SDS011;23904;52.322;10.232;2023-11-19T01:33:31;1.55;;;0.88;;
38089;SDS011;23904;52.322;10.232;2023-11-19T01:35:57;1.67;;;1.10;;
38089;SDS011;23904;52.322;10.232;2023-11-19T01:38:23;2.08;;;1.17;;
38089;SDS011;23904;52.322;10.232;2023-11-19T01:40:49;1.60;;;1.00;;
38089;SDS011;23904;52.322;10.232;2023-11-19T01:43:37;1.73;;;0.90;;
38089;SDS011;23904;52.322;10.232;2023-11-19T01:46:03;1.17;;;0.75;;
38089;SDS011;23904;52.322;10.232;2023-11-19T01:48:33;2.03;;;0.98;;
38089;SDS011;23904;52.322;10.232;2023-11-19T01:51:01;1.77;;;0.90;;
38089;SDS011;23904;52.322;10.232;2023-11-19T01:53:28;1.83;;;0.93;;
38089;SDS011;23904;52.322;10.232;2023-11-19T01:55:55;1.65;;;0.93;;
38089;SDS011;23904;52.322;10.232;2023-11-19T01:58:22;2.45;;;1.27;;
38089;SDS011;23904;52.322;10.232;2023-11-19T02:00:48;1.20;;;1.10;;
38089;SDS011;23904;52.322;10.232;2023-11-19T02:03:14;2.17;;;1.25;;
38089;SDS011;23904;52.322;10.232;2023-11-19T02:05:40;1.60;;;0.90;;
38089;SDS011;23904;52.322;10.232;2023-11-19T02:08:06;2.13;;;1.10;;
38089;SDS011;23904;52.322;10.232;2023-11-19T02:10:33;1.45;;;0.90;;
38089;SDS011;23904;52.322;10.232;2023-11-19T02:12:58;3.35;;;1.10;;
38089;SDS011;23904;52.322;10.232;2023-11-19T02:15:24;0.98;;;0.70;;
38089;SDS011;23904;52.322;10.232;2023-11-19T02:17:50;2.08;;;0.90;;
38089;SDS011;23904;52.322;10.232;2023-11-19T02:20:16;3.30;;;1.00;;
38089;SDS011;23904;52.322;10.232;2023-11-19T02:22:45;2.00;;;0.80;;
38089;SDS011;23904;52.322;10.232;2023-11-19T02:25:15;2.45;;;0.93;;
38089;SDS011;23904;52.322;10.232;2023-11-19T02:27:51;2.53;;;0.75;;
38089;SDS011;23904;52.322;10.232;2023-11-19T02:30:22;2.30;;;0.90;;
38089;SDS011;23904;52.322;10.232;2023-11-19T02:32:55;1.48;;;0.73;;
38089;SDS011;23904;52.322;10.232;2023-11-19T02:35:22;1.55;;;0.82;;
38089;SDS011;23904;52.322;10.232;2023-11-19T02:37:51;1.50;;;0.88;;
38089;SDS011;23904;52.322;10.232;2023-11-19T02:40:17;1.30;;;0.70;;
38089;SDS011;23904;52.322;10.232;2023-11-19T02:42:49;1.50;;;0.80;;
38089;SDS011;23904;52.322;10.232;2023-11-19T02:45:15;1.85;;;0.90;;
38089;SDS011;23904;52.322;10.232;2023-11-19T02:47:41;1.83;;;0.85;;
38089;SDS011;23904;52.322;10.232;2023-11-19T02:50:08;1.25;;;0.60;;
38089;SDS011;23904;52.322;10.232;2023-11-19T02:52:43;1.52;;;0.60;;
38089;SDS011;23904;52.322;10.232;2023-11-19T02:55:11;0.85;;;0.50;;
38089;SDS011;23904;52.322;10.232;2023-11-19T02:57:40;1.95;;;0.68;;
38089;SDS011;23904;52.322;10.232;2023-11-19T03:02:57;1.08;;;0.60;;
38089;SDS011;23904;52.322;10.232;2023-11-19T03:05:34;2.03;;;0.90;;
38089;SDS011;23904;52.322;10.232;2023-11-19T03:08:00;1.67;;;0.85;;
38089;SDS011;23904;52.322;10.232;2023-11-19T03:10:26;1.80;;;0.70;;
38089;SDS011;23904;52.322;10.232;2023-11-19T03:12:51;1.23;;;0.77;;
38089;SDS011;23904;52.322;10.232;2023-11-19T03:15:22;0.68;;;0.57;;
38089;SDS011;23904;52.322;10.232;2023-11-19T03:17:47;2.10;;;0.60;;
38089;SDS011;23904;52.322;10.232;2023-11-19T03:20:13;2.67;;;0.60;;
38089;SDS011;23904;52.322;10.232;2023-11-19T03:22:42;0.70;;;0.43;;
38089;SDS011;23904;52.322;10.232;2023-11-19T03:25:09;0.95;;;0.60;;
38089;SDS011;23904;52.322;10.232;2023-11-19T03:27:35;1.55;;;0.70;;
38089;SDS011;23904;52.322;10.232;2023-11-19T03:30:04;0.95;;;0.50;;
38089;SDS011;23904;52.322;10.232;2023-11-19T03:32:31;1.10;;;0.60;;
38089;SDS011;23904;52.322;10.232;2023-11-19T03:34:58;0.70;;;0.63;;
38089;SDS011;23904;52.322;10.232;2023-11-19T03:37:24;0.93;;;0.50;;
38089;SDS011;23904;52.322;10.232;2023-11-19T03:39:51;0.80;;;0.57;;
38089;SDS011;23904;52.322;10.232;2023-11-19T03:42:19;1.02;;;0.57;;
38089;SDS011;23904;52.322;10.232;2023-11-19T03:44:45;3.22;;;0.80;;
38089;SDS011;23904;52.322;10.232;2023-11-19T03:47:11;2.50;;;0.73;;
38089;SDS011;23904;52.322;10.232;2023-11-19T03:49:37;1.70;;;0.98;;
38089;SDS011;23904;52.322;10.232;2023-11-19T03:52:02;1.30;;;1.00;;
38089;SDS011;23904;52.322;10.232;2023-11-19T03:54:28;0.75;;;0.57;;
38089;SDS011;23904;52.322;10.232;2023-11-19T03:56:54;1.60;;;0.98;;
38089;SDS011;23904;52.322;10.232;2023-11-19T03:59:20;2.25;;;1.00;;
38089;SDS011;23904;52.322;10.232;2023-11-19T04:01:45;1.17;;;0.70;;
38089;SDS011;23904;52.322;10.232;2023-11-19T04:04:11;1.10;;;0.73;;
38089;SDS011;23904;52.322;10.232;2023-11-19T04:06:37;1.83;;;1.05;;
38089;SDS011;23904;52.322;10.232;2023-11-19T04:09:02;2.08;;;1.30;;
38089;SDS011;23904;52.322;10.232;2023-11-19T04:11:28;1.48;;;1.10;;
38089;SDS011;23904;52.322;10.232;2023-11-19T04:13:54;2.80;;;1.23;;
38089;SDS011;23904;52.322;10.232;2023-11-19T04:16:25;1.27;;;0.90;;
38089;SDS011;23904;52.322;10.232;2023-11-19T04:18:53;3.30;;;1.00;;
38089;SDS011;23904;52.322;10.232;2023-11-19T04:21:18;2.83;;;1.20;;
38089;SDS011;23904;52.322;10.232;2023-11-19T04:23:44;1.55;;;1.20;;
38089;SDS011;23904;52.322;10.232;2023-11-19T04:26:09;1.67;;;1.15;;
38089;SDS011;23904;52.322;10.232;2023-11-19T04:28:35;1.85;;;1.15;;
38089;SDS011;23904;52.322;10.232;2023-11-19T04:31:01;2.10;;;1.33;;
38089;SDS011;23904;52.322;10.232;2023-11-19T04:33:28;2.95;;;1.20;;
38089;SDS011;23904;52.322;10.232;2023-11-19T04:35:53;2.28;;;1.50;;
38089;SDS011;23904;52.322;10.232;2023-11-19T04:38:19;1.85;;;1.33;;
38089;SDS011;23904;52.322;10.232;2023-11-19T04:40:44;3.25;;;1.60;;
38089;SDS011;23904;52.322;10.232;2023-11-19T04:43:10;5.15;;;1.10;;
38089;SDS011;23904;52.322;10.232;2023-11-19T04:45:36;2.38;;;1.42;;
38089;SDS011;23904;52.322;10.232;2023-11-19T04:48:01;2.92;;;1.70;;
38089;SDS011;23904;52.322;10.232;2023-11-19T04:50:27;3.08;;;1.50;;
38089;SDS011;23904;52.322;10.232;2023-11-19T04:52:53;3.47;;;1.52;;
38089;SDS011;23904;52.322;10.232;2023-11-19T04:55:18;2.70;;;1.45;;
38089;SDS011;23904;52.322;10.232;2023-11-19T04:57:44;5.32;;;1.23;;
38089;SDS011;23904;52.322;10.232;2023-11-19T05:00:10;2.42;;;1.60;;
38089;SDS011;23904;52.322;10.232;2023-11-19T05:02:37;2.60;;;1.67;;
38089;SDS011;23904;52.322;10.232;2023-11-19T05:05:03;3.35;;;1.75;;
38089;SDS011;23904;52.322;10.232;2023-11-19T05:07:29;2.92;;;1.48;;
38089;SDS011;23904;52.322;10.232;2023-11-19T05:09:55;3.17;;;1.98;;
38089;SDS011;23904;52.322;10.232;2023-11-19T05:12:21;4.10;;;2.17;;
38089;SDS011;23904;52.322;10.232;2023-11-19T05:14:47;4.85;;;2.20;;
38089;SDS011;23904;52.322;10.232;2023-11-19T05:17:16;2.50;;;1.95;;
38089;SDS011;23904;52.322;10.232;2023-11-19T05:19:43;4.40;;;2.17;;
38089;SDS011;23904;52.322;10.232;2023-11-19T05:22:09;6.85;;;3.45;;
38089;SDS011;23904;52.322;10.232;2023-11-19T05:24:34;5.15;;;2.92;;
38089;SDS011;23904;52.322;10.232;2023-11-19T05:27:00;6.28;;;2.83;;
38089;SDS011;23904;52.322;10.232;2023-11-19T05:29:27;11.00;;;3.13;;
38089;SDS011;23904;52.322;10.232;2023-11-19T05:31:52;10.63;;;2.80;;
38089;SDS011;23904;52.322;10.232;2023-11-19T05:34:20;7.00;;;2.80;;
38089;SDS011;23904;52.322;10.232;2023-11-19T05:36:46;4.03;;;2.88;;
38089;SDS011;23904;52.322;10.232;2023-11-19T05:39:11;6.25;;;2.47;;
38089;SDS011;23904;52.322;10.232;2023-11-19T05:41:37;6.32;;;2.72;;
38089;SDS011;23904;52.322;10.232;2023-11-19T05:44:03;5.30;;;3.05;;
38089;SDS011;23904;52.322;10.232;2023-11-19T05:46:28;7.45;;;3.03;;
38089;SDS011;23904;52.322;10.232;2023-11-19T05:48:54;5.82;;;2.60;;
38089;SDS011;23904;52.322;10.232;2023-11-19T05:51:19;5.22;;;2.65;;
38089;SDS011;23904;52.322;10.232;2023-11-19T05:53:45;5.68;;;2.55;;
38089;SDS011;23904;52.322;10.232;2023-11-19T05:56:10;4.15;;;2.40;;
38089;SDS011;23904;52.322;10.232;2023-11-19T05:58:36;6.68;;;3.80;;
38089;SDS011;23904;52.322;10.232;2023-11-19T06:01:04;14.23;;;4.25;;
38089;SDS011;23904;52.322;10.232;2023-11-19T06:03:32;6.78;;;2.63;;
38089;SDS011;23904;52.322;10.232;2023-11-19T06:05:58;5.32;;;2.95;;
38089;SDS011;23904;52.322;10.232;2023-11-19T06:08:23;5.97;;;2.55;;
38089;SDS011;23904;52.322;10.232;2023-11-19T06:10:52;3.28;;;2.33;;
38089;SDS011;23904;52.322;10.232;2023-11-19T06:13:17;5.32;;;3.00;;
38089;SDS011;23904;52.322;10.232;2023-11-19T06:15:44;4.85;;;2.67;;
38089;SDS011;23904;52.322;10.232;2023-11-19T06:18:10;4.15;;;2.42;;
38089;SDS011;23904;52.322;10.232;2023-11-19T06:20:37;6.70;;;2.80;;
38089;SDS011;23904;52.322;10.232;2023-11-19T06:23:03;6.82;;;3.28;;
38089;SDS011;23904;52.322;10.232;2023-11-19T06:25:28;5.93;;;3.00;;
38089;SDS011;23904;52.322;10.232;2023-11-19T06:27:54;6.53;;;3.03;;
38089;SDS011;23904;52.322;10.232;2023-11-19T06:30:19;11.55;;;3.53;;
38089;SDS011;23904;52.322;10.232;2023-11-19T06:32:48;7.70;;;3.30;;
38089;SDS011;23904;52.322;10.232;2023-11-19T06:35:14;12.80;;;3.45;;
38089;SDS011;23904;52.322;10.232;2023-11-19T06:37:39;6.30;;;3.78;;
38089;SDS011;23904;52.322;10.232;2023-11-19T06:40:06;7.43;;;3.97;;
38089;SDS011;23904;52.322;10.232;2023-11-19T06:42:34;8.98;;;4.50;;
38089;SDS011;23904;52.322;10.232;2023-11-19T06:45:00;7.82;;;4.95;;
38089;SDS011;23904;52.322;10.232;2023-11-19T06:47:27;12.07;;;4.65;;
38089;SDS011;23904;52.322;10.232;2023-11-19T06:49:53;11.45;;;5.40;;
38089;SDS011;23904;52.322;10.232;2023-11-19T06:52:19;16.33;;;5.07;;
38089;SDS011;23904;52.322;10.232;2023-11-19T06:54:45;24.20;;;6.47;;
38089;SDS011;23904;52.322;10.232;2023-11-19T06:57:12;17.15;;;5.70;;
38089;SDS011;23904;52.322;10.232;2023-11-19T06:59:38;16.17;;;6.20;;
38089;SDS011;23904;52.322;10.232;2023-11-19T07:02:04;17.77;;;7.35;;
38089;SDS011;23904;52.322;10.232;2023-11-19T07:04:30;19.98;;;9.10;;
38089;SDS011;23904;52.322;10.232;2023-11-19T07:06:56;17.85;;;7.65;;
38089;SDS011;23904;52.322;10.232;2023-11-19T07:09:22;23.55;;;7.63;;
38089;SDS011;23904;52.322;10.232;2023-11-19T07:11:48;19.00;;;7.53;;
38089;SDS011;23904;52.322;10.232;2023-11-19T07:14:15;21.20;;;8.50;;
38089;SDS011;23904;52.322;10.232;2023-11-19T07:16:41;19.17;;;7.65;;
38089;SDS011;23904;52.322;10.232;2023-11-19T07:19:07;24.00;;;9.85;;
38089;SDS011;23904;52.322;10.232;2023-11-19T07:21:33;24.77;;;9.27;;
38089;SDS011;23904;52.322;10.232;2023-11-19T07:23:59;20.23;;;7.97;;
38089;SDS011;23904;52.322;10.232;2023-11-19T07:26:25;26.80;;;7.57;;
38089;SDS011;23904;52.322;10.232;2023-11-19T07:28:51;29.05;;;7.57;;
38089;SDS011;23904;52.322;10.232;2023-11-19T07:31:17;27.40;;;7.40;;
38089;SDS011;23904;52.322;10.232;2023-11-19T07:33:44;25.08;;;7.45;;
38089;SDS011;23904;52.322;10.232;2023-11-19T07:36:11;28.17;;;6.70;;
38089;SDS011;23904;52.322;10.232;2023-11-19T07:38:37;24.02;;;7.00;;
38089;SDS011;23904;52.322;10.232;2023-11-19T07:41:03;31.80;;;7.25;;
38089;SDS011;23904;52.322;10.232;2023-11-19T07:43:34;32.13;;;8.00;;
38089;SDS011;23904;52.322;10.232;2023-11-19T07:46:00;28.30;;;7.40;;
38089;SDS011;23904;52.322;10.232;2023-11-19T07:48:26;34.92;;;6.50;;
38089;SDS011;23904;52.322;10.232;2023-11-19T07:50:52;32.15;;;7.15;;
38089;SDS011;23904;52.322;10.232;2023-11-19T07:53:18;24.35;;;6.57;;
38089;SDS011;23904;52.322;10.232;2023-11-19T07:55:44;21.23;;;5.72;;
38089;SDS011;23904;52.322;10.232;2023-11-19T07:58:11;30.48;;;6.28;;
38089;SDS011;23904;52.322;10.232;2023-11-19T08:00:38;33.03;;;6.75;;
38089;SDS011;23904;52.322;10.232;2023-11-19T08:03:05;34.35;;;6.68;;
38089;SDS011;23904;52.322;10.232;2023-11-19T08:05:31;28.38;;;6.63;;
38089;SDS011;23904;52.322;10.232;2023-11-19T08:07:56;29.58;;;6.75;;
38089;SDS011;23904;52.322;10.232;2023-11-19T08:10:23;15.43;;;5.00;;
38089;SDS011;23904;52.322;10.232;2023-11-19T08:12:48;34.28;;;6.43;;
38089;SDS011;23904;52.322;10.232;2023-11-19T08:15:14;34.15;;;6.68;;
38089;SDS011;23904;52.322;10.232;2023-11-19T08:17:41;23.50;;;5.70;;
38089;SDS011;23904;52.322;10.232;2023-11-19T08:20:08;22.75;;;5.40;;
38089;SDS011;23904;52.322;10.232;2023-11-19T08:22:37;18.75;;;5.10;;
38089;SDS011;23904;52.322;10.232;2023-11-19T08:25:06;33.92;;;5.93;;
38089;SDS011;23904;52.322;10.232;2023-11-19T08:27:33;22.30;;;6.68;;
38089;SDS011;23904;52.322;10.232;2023-11-19T08:29:58;23.30;;;5.50;;
38089;SDS011;23904;52.322;10.232;2023-11-19T08:32:24;19.88;;;5.13;;
38089;SDS011;23904;52.322;10.232;2023-11-19T08:34:51;29.73;;;6.35;;
38089;SDS011;23904;52.322;10.232;2023-11-19T08:37:17;27.40;;;6.20;;
38089;SDS011;23904;52.322;10.232;2023-11-19T08:39:45;29.95;;;5.47;;
38089;SDS011;23904;52.322;10.232;2023-11-19T08:42:12;36.83;;;5.40;;
38089;SDS011;23904;52.322;10.232;2023-11-19T08:44:38;23.85;;;6.38;;
38089;SDS011;23904;52.322;10.232;2023-11-19T08:47:04;27.10;;;5.15;;
38089;SDS011;23904;52.322;10.232;2023-11-19T08:49:29;26.75;;;6.20;;
38089;SDS011;23904;52.322;10.232;2023-11-19T08:51:55;32.63;;;5.93;;
38089;SDS011;23904;52.322;10.232;2023-11-19T08:54:21;31.60;;;5.95;;
38089;SDS011;23904;52.322;10.232;2023-11-19T08:56:47;29.35;;;5.80;;
38089;SDS011;23904;52.322;10.232;2023-11-19T08:59:13;26.10;;;5.45;;
38089;SDS011;23904;52.322;10.232;2023-11-19T09:01:40;34.17;;;5.53;;
38089;SDS011;23904;52.322;10.232;2023-11-19T09:04:06;31.55;;;6.13;;
38089;SDS011;23904;52.322;10.232;2023-11-19T09:06:35;30.90;;;5.63;;
38089;SDS011;23904;52.322;10.232;2023-11-19T09:09:01;30.23;;;5.85;;
38089;SDS011;23904;52.322;10.232;2023-11-19T09:11:27;28.25;;;5.53;;
38089;SDS011;23904;52.322;10.232;2023-11-19T09:13:54;33.50;;;6.75;;
38089;SDS011;23904;52.322;10.232;2023-11-19T09:16:19;31.67;;;6.78;;
38089;SDS011;23904;52.322;10.232;2023-11-19T09:18:45;33.67;;;5.85;;
38089;SDS011;23904;52.322;10.232;2023-11-19T09:21:11;28.55;;;5.75;;
38089;SDS011;23904;52.322;10.232;2023-11-19T09:23:37;41.20;;;6.22;;
38089;SDS011;23904;52.322;10.232;2023-11-19T09:26:04;34.97;;;5.53;;
38089;SDS011;23904;52.322;10.232;2023-11-19T09:28:31;36.33;;;6.47;;
38089;SDS011;23904;52.322;10.232;2023-11-19T09:30:57;29.20;;;5.28;;
38089;SDS011;23904;52.322;10.232;2023-11-19T09:33:23;30.83;;;7.32;;
38089;SDS011;23904;52.322;10.232;2023-11-19T09:35:49;28.90;;;5.38;;
38089;SDS011;23904;52.322;10.232;2023-11-19T09:38:15;34.67;;;5.95;;
38089;SDS011;23904;52.322;10.232;2023-11-19T09:40:42;28.73;;;5.95;;
38089;SDS011;23904;52.322;10.232;2023-11-19T09:43:07;35.10;;;7.20;;
38089;SDS011;23904;52.322;10.232;2023-11-19T09:45:39;29.58;;;5.55;;
38089;SDS011;23904;52.322;10.232;2023-11-19T09:48:18;39.05;;;4.97;;
38089;SDS011;23904;52.322;10.232;2023-11-19T09:50:47;27.30;;;5.22;;
38089;SDS011;23904;52.322;10.232;2023-11-19T09:53:14;28.92;;;5.43;;
38089;SDS011;23904;52.322;10.232;2023-11-19T09:55:45;24.48;;;5.30;;
38089;SDS011;23904;52.322;10.232;2023-11-19T09:58:11;33.00;;;6.43;;
38089;SDS011;23904;52.322;10.232;2023-11-19T10:00:39;29.25;;;4.97;;
38089;SDS011;23904;52.322;10.232;2023-11-19T10:03:06;22.90;;;4.65;;
38089;SDS011;23904;52.322;10.232;2023-11-19T10:05:34;28.88;;;4.85;;
38089;SDS011;23904;52.322;10.232;2023-11-19T10:08:01;32.95;;;6.10;;
38089;SDS011;23904;52.322;10.232;2023-11-19T10:10:28;28.48;;;4.80;;
38089;SDS011;23904;52.322;10.232;2023-11-19T10:12:53;34.20;;;6.43;;
38089;SDS011;23904;52.322;10.232;2023-11-19T10:15:20;36.33;;;6.45;;
38089;SDS011;23904;52.322;10.232;2023-11-19T10:17:51;38.58;;;6.68;;
38089;SDS011;23904;52.322;10.232;2023-11-19T10:20:23;35.13;;;6.53;;
38089;SDS011;23904;52.322;10.232;2023-11-19T10:22:52;30.10;;;6.82;;
38089;SDS011;23904;52.322;10.232;2023-11-19T10:25:26;36.72;;;5.72;;
38089;SDS011;23904;52.322;10.232;2023-11-19T10:27:53;29.83;;;5.65;;
38089;SDS011;23904;52.322;10.232;2023-11-19T10:30:24;31.15;;;5.43;;
38089;SDS011;23904;52.322;10.232;2023-11-19T10:33:10;33.40;;;5.88;;
38089;SDS011;23904;52.322;10.232;2023-11-19T10:35:52;33.03;;;5.82;;
38089;SDS011;23904;52.322;10.232;2023-11-19T10:38:24;37.75;;;6.80;;
38089;SDS011;23904;52.322;10.232;2023-11-19T10:40:51;28.02;;;5.05;;
38089;SDS011;23904;52.322;10.232;2023-11-19T10:43:21;33.65;;;4.85;;
38089;SDS011;23904;52.322;10.232;2023-11-19T10:45:48;34.60;;;4.93;;
38089;SDS011;23904;52.322;10.232;2023-11-19T10:48:14;31.88;;;5.28;;
38089;SDS011;23904;52.322;10.232;2023-11-19T10:50:41;26.58;;;5.10;;
38089;SDS011;23904;52.322;10.232;2023-11-19T10:53:10;40.50;;;5.40;;
38089;SDS011;23904;52.322;10.232;2023-11-19T10:55:40;31.85;;;5.13;;
38089;SDS011;23904;52.322;10.232;2023-11-19T10:58:07;38.00;;;6.20;;
38089;SDS011;23904;52.322;10.232;2023-11-19T11:00:47;27.60;;;4.82;;
38089;SDS011;23904;52.322;10.232;2023-11-19T11:03:18;27.17;;;5.22;;
38089;SDS011;23904;52.322;10.232;2023-11-19T11:05:50;32.78;;;5.22;;
38089;SDS011;23904;52.322;10.232;2023-11-19T11:08:18;27.05;;;4.38;;
38089;SDS011;23904;52.322;10.232;2023-11-19T11:13:18;27.45;;;4.47;;
38089;SDS011;23904;52.322;10.232;2023-11-19T11:15:45;33.15;;;5.68;;
38089;SDS011;23904;52.322;10.232;2023-11-19T11:18:12;34.45;;;4.93;;
38089;SDS011;23904;52.322;10.232;2023-11-19T11:20:38;24.60;;;5.18;;
38089;SDS011;23904;52.322;10.232;2023-11-19T11:26:22;20.92;;;4.90;;
38089;SDS011;23904;52.322;10.232;2023-11-19T11:38:43;23.17;;;4.93;;
38089;SDS011;23904;52.322;10.232;2023-11-19T11:41:42;35.33;;;5.63;;
38089;SDS011;23904;52.322;10.232;2023-11-19T11:44:01;23.83;;;5.28;;
38089;SDS011;23904;52.322;10.232;2023-11-19T11:49:00;18.25;;;4.82;;
38089;SDS011;23904;52.322;10.232;2023-11-19T12:02:11;26.35;;;4.43;;
38089;SDS011;23904;52.322;10.232;2023-11-19T12:04:41;25.95;;;6.00;;
38089;SDS011;23904;52.322;10.232;2023-11-19T12:07:18;25.35;;;4.47;;
38089;SDS011;23904;52.322;10.232;2023-11-19T12:09:47;29.45;;;4.95;;
38089;SDS011;23904;52.322;10.232;2023-11-19T12:12:21;26.73;;;4.40;;
38089;SDS011;23904;52.322;10.232;2023-11-19T12:19:59;29.33;;;5.45;;
38089;SDS011;23904;52.322;10.232;2023-11-19T12:22:25;31.17;;;6.28;;
38089;SDS011;23904;52.322;10.232;2023-11-19T12:24:52;30.92;;;6.18;;
38089;SDS011;23904;52.322;10.232;2023-11-19T12:27:21;29.02;;;5.35;;
38089;SDS011;23904;52.322;10.232;2023-11-19T12:29:47;39.55;;;6.25;;
38089;SDS011;23904;52.322;10.232;2023-11-19T12:32:13;36.67;;;6.38;;
38089;SDS011;23904;52.322;10.232;2023-11-19T12:34:39;32.28;;;5.55;;
38089;SDS011;23904;52.322;10.232;2023-11-19T12:37:05;31.45;;;5.38;;
38089;SDS011;23904;52.322;10.232;2023-11-19T12:39:32;34.35;;;7.03;;
38089;SDS011;23904;52.322;10.232;2023-11-19T12:41:57;29.05;;;4.75;;
38089;SDS011;23904;52.322;10.232;2023-11-19T12:44:26;32.30;;;5.75;;
38089;SDS011;23904;52.322;10.232;2023-11-19T12:47:01;41.03;;;6.68;;
38089;SDS011;23904;52.322;10.232;2023-11-19T12:49:32;33.63;;;6.80;;
38089;SDS011;23904;52.322;10.232;2023-11-19T12:51:58;30.15;;;5.35;;
38089;SDS011;23904;52.322;10.232;2023-11-19T12:54:31;30.17;;;5.88;;
38089;SDS011;23904;52.322;10.232;2023-11-19T12:57:01;31.65;;;6.32;;
38089;SDS011;23904;52.322;10.232;2023-11-19T12:59:27;32.78;;;6.15;;
38089;SDS011;23904;52.322;10.232;2023-11-19T13:01:59;38.17;;;6.82;;
38089;SDS011;23904;52.322;10.232;2023-11-19T13:04:29;32.28;;;6.25;;
38089;SDS011;23904;52.322;10.232;2023-11-19T13:06:58;26.27;;;5.43;;
38089;SDS011;23904;52.322;10.232;2023-11-19T13:09:25;35.22;;;6.07;;
38089;SDS011;23904;52.322;10.232;2023-11-19T13:11:52;30.50;;;5.75;;
38089;SDS011;23904;52.322;10.232;2023-11-19T13:14:19;35.50;;;6.15;;
38089;SDS011;23904;52.322;10.232;2023-11-19T13:16:45;52.00;;;6.78;;
38089;SDS011;23904;52.322;10.232;2023-11-19T13:19:12;37.85;;;6.32;;
38089;SDS011;23904;52.322;10.232;2023-11-19T13:21:38;32.38;;;4.82;;
38089;SDS011;23904;52.322;10.232;2023-11-19T13:24:05;24.23;;;5.15;;
38089;SDS011;23904;52.322;10.232;2023-11-19T13:26:31;38.53;;;6.53;;
38089;SDS011;23904;52.322;10.232;2023-11-19T13:28:57;34.75;;;7.00;;
38089;SDS011;23904;52.322;10.232;2023-11-19T13:31:23;29.42;;;5.50;;
38089;SDS011;23904;52.322;10.232;2023-11-19T13:33:48;30.50;;;6.28;;
38089;SDS011;23904;52.322;10.232;2023-11-19T13:36:14;37.88;;;6.10;;
38089;SDS011;23904;52.322;10.232;2023-11-19T13:38:40;32.78;;;5.15;;
38089;SDS011;23904;52.322;10.232;2023-11-19T13:41:09;29.15;;;5.97;;
38089;SDS011;23904;52.322;10.232;2023-11-19T13:43:36;34.58;;;5.30;;
38089;SDS011;23904;52.322;10.232;2023-11-19T13:46:02;36.05;;;4.90;;
38089;SDS011;23904;52.322;10.232;2023-11-19T13:48:28;34.97;;;6.18;;
38089;SDS011;23904;52.322;10.232;2023-11-19T13:50:54;27.90;;;6.18;;
38089;SDS011;23904;52.322;10.232;2023-11-19T13:53:20;39.33;;;5.85;;
38089;SDS011;23904;52.322;10.232;2023-11-19T13:55:47;33.60;;;6.05;;
38089;SDS011;23904;52.322;10.232;2023-11-19T13:58:13;29.98;;;6.00;;
38089;SDS011;23904;52.322;10.232;2023-11-19T14:00:39;42.75;;;5.68;;
38089;SDS011;23904;52.322;10.232;2023-11-19T14:03:06;27.80;;;5.65;;
38089;SDS011;23904;52.322;10.232;2023-11-19T14:05:32;24.25;;;5.47;;
38089;SDS011;23904;52.322;10.232;2023-11-19T14:07:58;30.08;;;5.38;;
38089;SDS011;23904;52.322;10.232;2023-11-19T14:10:23;28.23;;;5.15;;
38089;SDS011;23904;52.322;10.232;2023-11-19T14:12:49;28.33;;;4.85;;
38089;SDS011;23904;52.322;10.232;2023-11-19T14:15:15;34.25;;;6.75;;
38089;SDS011;23904;52.322;10.232;2023-11-19T14:17:43;25.98;;;4.88;;
38089;SDS011;23904;52.322;10.232;2023-11-19T14:20:09;33.22;;;6.03;;
38089;SDS011;23904;52.322;10.232;2023-11-19T14:22:41;22.70;;;5.22;;
38089;SDS011;23904;52.322;10.232;2023-11-19T14:25:09;27.77;;;5.72;;
38089;SDS011;23904;52.322;10.232;2023-11-19T14:27:36;29.70;;;6.63;;
38089;SDS011;23904;52.322;10.232;2023-11-19T14:30:06;31.40;;;6.30;;
38089;SDS011;23904;52.322;10.232;2023-11-19T14:32:38;33.65;;;6.13;;
38089;SDS011;23904;52.322;10.232;2023-11-19T14:35:07;25.15;;;6.43;;
38089;SDS011;23904;52.322;10.232;2023-11-19T14:37:33;35.80;;;5.47;;
38089;SDS011;23904;52.322;10.232;2023-11-19T14:39:59;27.60;;;5.15;;
38089;SDS011;23904;52.322;10.232;2023-11-19T14:42:27;29.85;;;6.57;;
38089;SDS011;23904;52.322;10.232;2023-11-19T14:44:52;34.80;;;6.57;;
38089;SDS011;23904;52.322;10.232;2023-11-19T14:47:19;30.95;;;5.50;;
38089;SDS011;23904;52.322;10.232;2023-11-19T14:49:45;28.50;;;7.38;;
38089;SDS011;23904;52.322;10.232;2023-11-19T14:52:11;34.28;;;8.30;;
38089;SDS011;23904;52.322;10.232;2023-11-19T14:54:37;38.40;;;6.57;;
38089;SDS011;23904;52.322;10.232;2023-11-19T14:57:03;37.03;;;6.63;;
38089;SDS011;23904;52.322;10.232;2023-11-19T14:59:35;37.45;;;6.30;;
38089;SDS011;23904;52.322;10.232;2023-11-19T15:02:02;36.20;;;5.97;;
38089;SDS011;23904;52.322;10.232;2023-11-19T15:04:28;31.85;;;5.88;;